Stavanger Bliss — LAGE7 — position and weather

sailwx.info

Track history (hours):
 
Tides and Currents Weather Stations Pressure Air Temp Water Temp Dewpoint Dewpoint Depression Visibility Wind Speed Wind Dir Waves Ship Positions

Stavanger Bliss

Last reported at 2018-May-25 03:00 UTC. Time now 2018-May-25 03:22 UTC.
Position N 01°17' E 103°44'.

Length 228 m; draft 9.5 m.

Type: Other ship. MMSI: 259791000.

Date/timePositionNaut miles runAvg speedWind from/ knotsBaromVisibWave heightAir tempDewpointWater temp
2018-May-25 03:00N 01°17' E 103°44'0 0.0
2018-May-25 02:30N 01°17' E 103°44'0 0.0
2018-May-25 02:00N 01°17' E 103°44'0 0.0
2018-May-25 01:30N 01°17' E 103°44'0 0.0
2018-May-25 01:00N 01°17' E 103°44'0 0.0
2018-May-25 00:31N 01°17' E 103°44'0 0.0
2018-May-25 00:00N 01°17' E 103°44'0 0.0
2018-May-24 23:31N 01°17' E 103°44'0 0.0
2018-May-24 23:00N 01°17' E 103°44'0 0.0
2018-May-24 22:29N 01°17' E 103°44'0 0.0
2018-May-24 22:00N 01°17' E 103°44'0 0.0
2018-May-24 21:30N 01°17' E 103°44'0 0.0
2018-May-24 21:00N 01°17' E 103°44'0 0.0
2018-May-24 20:30N 01°17' E 103°44'0 0.0
2018-May-24 20:00N 01°17' E 103°44'0 0.0
2018-May-24 19:30N 01°17' E 103°44'0 0.0
2018-May-24 19:01N 01°17' E 103°44'0 0.0
2018-May-24 18:31N 01°17' E 103°44'0 0.8
2018-May-24 18:01N 01°17' E 103°44'2 3.5
2018-May-24 17:30N 01°16' E 103°46'2 4.5
2018-May-24 17:00N 01°15' E 103°44'4 8.9
2018-May-24 16:30N 01°12' E 103°40'2 4.2
2018-May-24 16:01N 01°11' E 103°42'0 0.0
2018-May-24 15:23N 01°11' E 103°42'0 0.0
2018-May-24 15:00N 01°11' E 103°42'0 0.0
2018-May-24 14:30N 01°11' E 103°42'0 0.1
2018-May-24 14:00N 01°11' E 103°41'0 0.1
2018-May-24 13:30N 01°11' E 103°41'0 0.0
2018-May-24 08:57N 01°11' E 103°42'0 0.1
2018-May-24 08:30N 01°11' E 103°42'0 0.0
2018-May-24 07:59N 01°11' E 103°42'0 0.1
2018-May-24 07:29N 01°11' E 103°42'0 0.0
2018-May-24 07:00N 01°11' E 103°42'0 0.0
2018-May-24 06:21N 01°11' E 103°42'0 0.2
2018-May-24 06:00N 01°11' E 103°42'0 0.0
2018-May-24 05:30N 01°11' E 103°42'0 0.0
2018-May-24 04:53N 01°11' E 103°42'0 0.0
2018-May-24 04:17N 01°11' E 103°42'0 0.1
2018-May-24 03:48N 01°11' E 103°42'0 0.1
2018-May-24 03:26N 01°11' E 103°42'0 0.2
2018-May-24 02:53N 01°11' E 103°42'0 0.2
2018-May-24 02:30N 01°11' E 103°42'1 1.8
2018-May-24 02:01N 01°12' E 103°41'3 6.3
2018-May-24 01:30N 01°15' E 103°43'3 5.6
2018-May-24 00:58N 01°16' E 103°46'2 3.6
2018-May-24 00:30N 01°14' E 103°45'0 0.0
2018-May-23 23:21N 01°14' E 103°45'0 0.0
2018-May-23 22:53N 01°14' E 103°45'0 0.0
2018-May-23 22:27N 01°14' E 103°45'0 0.0
2018-May-23 21:45N 01°14' E 103°45'0 0.0
2018-May-23 21:27N 01°14' E 103°45'0 0.0
2018-May-23 20:41N 01°14' E 103°45'0 0.0
2018-May-23 20:03N 01°14' E 103°45'0 0.0
2018-May-23 19:51N 01°14' E 103°45'0 0.0
2018-May-23 19:17N 01°14' E 103°45'0 0.0
2018-May-23 18:59N 01°14' E 103°45'0 0.0
2018-May-23 18:29N 01°14' E 103°45'0 0.0
2018-May-23 17:59N 01°14' E 103°45'0 0.0
2018-May-23 17:15N 01°14' E 103°45'0 0.0
2018-May-23 16:51N 01°14' E 103°45'0 0.0
2018-May-23 16:29N 01°14' E 103°45'0 0.0
2018-May-23 15:59N 01°14' E 103°45'0 0.0
2018-May-23 15:27N 01°14' E 103°45'0 0.0
2018-May-23 14:51N 01°14' E 103°45'0 0.0
2018-May-23 14:27N 01°14' E 103°45'0 0.0
2018-May-23 13:57N 01°14' E 103°45'0 0.0
2018-May-23 13:26N 01°14' E 103°45'0 0.0
2018-May-23 12:51N 01°14' E 103°45'0 0.0
2018-May-23 12:27N 01°14' E 103°45'0 0.0
2018-May-23 11:39N 01°14' E 103°45'0 0.0
2018-May-23 11:27N 01°14' E 103°45'0 0.0
2018-May-23 10:53N 01°14' E 103°45'0 0.0
2018-May-23 10:29N 01°14' E 103°45'0 0.0
2018-May-23 09:53N 01°14' E 103°45'0 0.0
2018-May-23 09:23N 01°14' E 103°45'0 0.0
2018-May-23 08:53N 01°14' E 103°45'0 0.0
2018-May-23 08:29N 01°14' E 103°45'0 0.0
2018-May-23 07:57N 01°14' E 103°45'0 0.0
2018-May-23 07:09N 01°14' E 103°45'0 0.0
2018-May-23 06:53N 01°14' E 103°45'0 0.0
2018-May-23 06:29N 01°14' E 103°45'0 0.0
2018-May-23 05:57N 01°14' E 103°45'0 0.0
2018-May-23 05:27N 01°14' E 103°45'0 0.0
2018-May-23 04:57N 01°14' E 103°45'0 0.0
2018-May-23 04:29N 01°14' E 103°45'0 0.0
2018-May-23 03:57N 01°14' E 103°45'0 0.0
2018-May-23 03:27N 01°14' E 103°45'0 0.0
2018-May-23 02:59N 01°14' E 103°45'0 0.0
2018-May-23 02:29N 01°14' E 103°45'0 0.0
2018-May-23 01:59N 01°14' E 103°45'0 0.0
2018-May-23 01:29N 01°14' E 103°45'0 0.0
2018-May-23 00:59N 01°14' E 103°45'0 0.0
2018-May-23 00:28N 01°14' E 103°45'0 0.0
2018-May-22 23:53N 01°14' E 103°45'0 0.0
2018-May-22 23:21N 01°14' E 103°45'0 0.0
2018-May-22 23:00N 01°14' E 103°45'0 0.0
2018-May-22 22:29N 01°14' E 103°45'0 0.0
2018-May-22 21:57N 01°14' E 103°45'0 0.0
2018-May-22 21:30N 01°14' E 103°45'0 0.0
2018-May-22 20:57N 01°14' E 103°45'0 0.0
2018-May-22 20:30N 01°14' E 103°45'0 0.0
2018-May-22 19:51N 01°14' E 103°45'0 0.0
2018-May-22 19:30N 01°14' E 103°45'0 0.0
2018-May-22 19:00N 01°14' E 103°45'0 0.0
2018-May-22 18:27N 01°14' E 103°45'0 0.0
2018-May-22 17:57N 01°14' E 103°45'0 0.0
2018-May-22 17:27N 01°14' E 103°45'0 0.0
2018-May-22 16:56N 01°14' E 103°45'0 0.0
2018-May-22 16:30N 01°14' E 103°45'0 0.0
2018-May-22 16:00N 01°14' E 103°45'0 0.8
2018-May-22 15:28N 01°14' E 103°44'2 4.5
2018-May-22 15:00N 01°14' E 103°42'4 7.2
2018-May-22 14:30N 01°12' E 103°39'2 5.0
2018-May-22 14:00N 01°11' E 103°42'0 0.1
2018-May-22 13:30N 01°11' E 103°42'0 0.1
2018-May-22 13:00N 01°11' E 103°42'0 0.3
2018-May-22 12:30N 01°11' E 103°42'0 0.1
2018-May-22 12:00N 01°11' E 103°42'0 0.0
2018-May-22 11:24N 01°11' E 103°42'0 0.0
2018-May-22 10:51N 01°11' E 103°42'0 0.0
2018-May-22 10:17N 01°11' E 103°42'0 0.2
2018-May-22 10:00N 01°11' E 103°42'0 0.1
2018-May-22 09:28N 01°11' E 103°42'0 0.1
2018-May-22 09:00N 01°11' E 103°42'0 0.2
2018-May-22 08:30N 01°11' E 103°42'0 0.3
2018-May-22 07:57N 01°11' E 103°42'1 1.3
2018-May-22 07:30N 01°12' E 103°42'6 4.1
2018-May-22 06:02N 01°18' E 103°42'0 0.5
2018-May-22 06:00N 01°18' E 103°42'0 0.0
2018-May-22 04:58N 01°18' E 103°42'0 0.0
2018-May-22 03:20N 01°18' E 103°42'0 0.0
2018-May-22 02:56N 01°18' E 103°42'0 0.0
2018-May-22 01:04N 01°18' E 103°42'0 0.0
2018-May-22 00:38N 01°18' E 103°42'0 0.0
2018-May-22 00:20N 01°18' E 103°42'0 0.0
2018-May-21 23:58N 01°18' E 103°42'0 0.0
2018-May-21 23:26N 01°18' E 103°42'0 0.0
2018-May-21 22:50N 01°18' E 103°42'0 0.0
2018-May-21 22:26N 01°18' E 103°42'0 0.0
2018-May-21 21:14N 01°18' E 103°42'0 0.0
2018-May-21 20:56N 01°18' E 103°42'0 0.0
2018-May-21 19:08N 01°18' E 103°42'0 0.0
2018-May-21 18:56N 01°18' E 103°42'0 0.0
2018-May-21 17:38N 01°18' E 103°42'0 0.0
2018-May-21 17:14N 01°18' E 103°42'0 0.0
2018-May-21 16:52N 01°18' E 103°42'0 0.0
2018-May-21 16:08N 01°18' E 103°42'0 0.0
2018-May-21 15:56N 01°18' E 103°42'0 0.0
2018-May-21 15:26N 01°18' E 103°42'0 0.0
2018-May-21 14:38N 01°18' E 103°42'0 0.0
2018-May-21 14:22N 01°18' E 103°42'0 0.0
2018-May-21 13:58N 01°18' E 103°42'0 0.0
2018-May-21 13:26N 01°18' E 103°42'0 0.0
2018-May-21 12:58N 01°18' E 103°42'0 0.0
2018-May-21 11:38N 01°18' E 103°42'0 0.0
2018-May-21 11:26N 01°18' E 103°42'0 0.0
2018-May-21 10:38N 01°18' E 103°42'0 0.0
2018-May-21 10:08N 01°18' E 103°42'0 0.0
2018-May-21 09:58N 01°18' E 103°42'0 0.0
2018-May-21 09:22N 01°18' E 103°42'0 0.0
2018-May-21 08:56N 01°18' E 103°42'0 0.0
2018-May-21 08:26N 01°18' E 103°42'0 0.0
2018-May-21 07:58N 01°18' E 103°42'0 0.0
2018-May-21 07:26N 01°18' E 103°42'0 0.0
2018-May-21 06:56N 01°18' E 103°42'0 0.0
2018-May-21 06:22N 01°18' E 103°42'0 0.0
2018-May-21 05:50N 01°18' E 103°42'0 0.0
2018-May-21 05:28N 01°18' E 103°42'0 0.0
2018-May-21 04:50N 01°18' E 103°42'0 0.0
2018-May-21 04:22N 01°18' E 103°42'0 0.0
2018-May-21 03:56N 01°18' E 103°42'0 0.0
2018-May-21 03:28N 01°18' E 103°42'0 0.0
2018-May-21 02:56N 01°18' E 103°42'0 0.0
2018-May-21 02:29N 01°18' E 103°42'0 0.0
2018-May-21 01:44N 01°18' E 103°42'0 0.0
2018-May-21 01:20N 01°18' E 103°42'0 0.0
2018-May-21 00:56N 01°18' E 103°42'0 0.0
2018-May-21 00:27N 01°18' E 103°42'0 0.0
2018-May-20 23:59N 01°18' E 103°42'0 0.0
2018-May-20 23:30N 01°18' E 103°42'0 0.0
2018-May-20 22:51N 01°18' E 103°42'0 0.0
2018-May-20 22:27N 01°18' E 103°42'0 0.0
2018-May-20 21:59N 01°18' E 103°42'0 0.0
2018-May-20 21:29N 01°18' E 103°42'0 0.0
2018-May-20 21:00N 01°18' E 103°42'0 0.0
2018-May-20 20:30N 01°18' E 103°42'0 0.0
2018-May-20 19:59N 01°18' E 103°42'0 0.0
2018-May-20 19:20N 01°18' E 103°42'0 0.0
2018-May-20 19:00N 01°18' E 103°42'0 0.0
2018-May-20 18:24N 01°18' E 103°42'0 0.0
2018-May-20 17:59N 01°18' E 103°42'0 0.0
2018-May-20 17:27N 01°18' E 103°42'0 0.0
2018-May-20 16:57N 01°18' E 103°42'0 0.0
2018-May-20 16:29N 01°18' E 103°42'0 0.0
2018-May-20 15:57N 01°18' E 103°42'0 0.0
2018-May-20 15:30N 01°18' E 103°42'0 0.4
2018-May-20 15:00N 01°18' E 103°41'2 4.7
2018-May-20 14:30N 01°17' E 103°39'4 8.8
2018-May-20 14:00N 01°12' E 103°40'4 8.8
2018-May-20 13:31N 01°09' E 103°43'0 0.7
2018-May-20 13:00N 01°10' E 103°43'0 0.1
2018-May-20 12:30N 01°10' E 103°43'0 0.1
2018-May-20 12:00N 01°10' E 103°43'0 0.0
2018-May-20 11:28N 01°10' E 103°43'0 0.1
2018-May-20 10:49N 01°10' E 103°43'0 0.1
2018-May-20 10:30N 01°10' E 103°43'0 0.2
2018-May-20 09:58N 01°10' E 103°44'0 0.0
2018-May-20 09:30N 01°10' E 103°44'0 0.1
2018-May-20 08:55N 01°10' E 103°44'0 0.0
2018-May-20 08:19N 01°10' E 103°44'0 0.0
2018-May-20 07:58N 01°10' E 103°44'0 0.1
2018-May-20 07:25N 01°10' E 103°44'0 0.1
2018-May-20 07:00N 01°10' E 103°44'0 0.1
2018-May-20 06:30N 01°09' E 103°44'0 0.8
2018-May-20 06:00N 01°09' E 103°43'2 3.7
2018-May-20 05:31N 01°10' E 103°42'3 5.5
2018-May-20 04:59N 01°12' E 103°40'3 6.6
2018-May-20 04:30N 01°14' E 103°42'2 3.9
2018-May-20 04:00N 01°15' E 103°44'0 0.4
2018-May-20 03:13N 01°14' E 103°44'0 0.0
2018-May-20 02:50N 01°14' E 103°44'0 0.0
2018-May-20 02:26N 01°14' E 103°44'0 0.0
2018-May-20 01:48N 01°14' E 103°44'0 0.0
2018-May-20 01:26N 01°14' E 103°44'0 0.0
2018-May-20 00:54N 01°14' E 103°44'0 0.0
2018-May-20 00:24N 01°14' E 103°44'0 0.0
2018-May-19 23:55N 01°14' E 103°44'0 0.0
2018-May-19 23:30N 01°14' E 103°44'0 0.0
2018-May-19 23:00N 01°14' E 103°44'0 0.0
2018-May-19 22:27N 01°14' E 103°44'0 0.0
2018-May-19 22:00N 01°14' E 103°44'0 0.0
2018-May-19 21:27N 01°14' E 103°44'0 0.0
2018-May-19 21:00N 01°14' E 103°44'0 0.0
2018-May-19 20:25N 01°14' E 103°44'0 0.0
2018-May-19 20:00N 01°14' E 103°44'0 0.0
2018-May-19 19:27N 01°14' E 103°44'0 0.0
2018-May-19 18:57N 01°14' E 103°44'0 0.0
2018-May-19 18:30N 01°14' E 103°44'0 0.0
2018-May-19 18:00N 01°14' E 103°44'0 0.0
2018-May-19 17:25N 01°14' E 103°44'0 0.0
2018-May-19 16:54N 01°14' E 103°44'0 0.0
2018-May-19 16:30N 01°14' E 103°44'0 0.0
2018-May-19 15:44N 01°14' E 103°44'0 0.0
2018-May-19 15:26N 01°14' E 103°44'0 0.0
2018-May-19 14:39N 01°14' E 103°44'0 0.0
2018-May-19 14:30N 01°14' E 103°44'0 0.0
2018-May-19 14:00N 01°14' E 103°44'0 0.0
2018-May-19 13:26N 01°14' E 103°44'0 0.0
2018-May-19 13:00N 01°14' E 103°44'0 0.0
2018-May-19 12:30N 01°14' E 103°44'0 0.0
2018-May-19 11:55N 01°14' E 103°44'0 0.0
2018-May-19 11:26N 01°14' E 103°44'0 0.0
2018-May-19 10:56N 01°14' E 103°44'0 0.0
2018-May-19 10:25N 01°14' E 103°44'0 0.0
2018-May-19 09:51N 01°14' E 103°44'0 0.0
2018-May-19 09:26N 01°14' E 103°44'0 0.0
2018-May-19 08:57N 01°14' E 103°44'0 0.0
2018-May-19 08:25N 01°14' E 103°44'0 0.0
2018-May-19 08:00N 01°14' E 103°44'0 0.0
2018-May-19 07:27N 01°14' E 103°44'0 0.0
2018-May-19 07:00N 01°14' E 103°44'0 0.0
2018-May-19 06:09N 01°14' E 103°44'0 0.0
2018-May-19 06:00N 01°14' E 103°44'0 0.0
2018-May-19 05:30N 01°14' E 103°44'0 0.0
2018-May-19 04:57N 01°14' E 103°44'0 0.0
2018-May-19 04:25N 01°14' E 103°44'0 0.0
2018-May-19 04:00N 01°14' E 103°44'0 0.0
2018-May-19 03:30N 01°14' E 103°44'0 0.0
2018-May-19 02:57N 01°14' E 103°44'0 0.0
2018-May-19 02:21N 01°14' E 103°44'0 0.0
2018-May-19 02:00N 01°14' E 103°44'0 0.0
2018-May-19 01:27N 01°14' E 103°44'0 0.0
2018-May-19 00:49N 01°14' E 103°44'0 0.0
2018-May-19 00:24N 01°14' E 103°44'0 0.0
2018-May-18 23:57N 01°14' E 103°44'0 0.0
2018-May-18 23:30N 01°14' E 103°44'0 0.0
2018-May-18 22:50N 01°14' E 103°44'0 0.0
2018-May-18 22:26N 01°14' E 103°44'0 0.0
2018-May-18 21:56N 01°14' E 103°44'0 0.0
2018-May-18 21:30N 01°14' E 103°44'0 0.0
2018-May-18 20:57N 01°14' E 103°44'0 0.0
2018-May-18 20:26N 01°14' E 103°44'0 0.0
2018-May-18 19:57N 01°14' E 103°44'0 0.0
2018-May-18 19:27N 01°14' E 103°44'0 0.0
2018-May-18 18:57N 01°14' E 103°44'0 0.0
2018-May-18 18:27N 01°14' E 103°44'0 0.0
2018-May-18 17:55N 01°14' E 103°44'0 0.0
2018-May-18 17:25N 01°14' E 103°44'0 0.0
2018-May-18 16:57N 01°14' E 103°44'0 0.0
2018-May-18 16:30N 01°14' E 103°44'0 0.0
2018-May-18 15:51N 01°14' E 103°44'0 0.0
2018-May-18 15:25N 01°14' E 103°44'0 0.0
2018-May-18 15:00N 01°14' E 103°44'0 0.0
2018-May-18 14:25N 01°14' E 103°44'0 0.0
2018-May-18 13:51N 01°14' E 103°44'0 0.0
2018-May-18 13:19N 01°14' E 103°44'0 0.0
2018-May-18 12:49N 01°14' E 103°44'0 0.0
2018-May-18 12:30N 01°14' E 103°44'0 0.0
2018-May-18 11:58N 01°14' E 103°44'0 0.0
2018-May-18 11:30N 01°14' E 103°44'0 0.0
2018-May-18 11:01N 01°14' E 103°44'0 0.0
2018-May-18 10:30N 01°14' E 103°44'0 0.8
2018-May-18 10:01N 01°15' E 103°44'1 2.9
2018-May-18 09:31N 01°14' E 103°43'2 4.2
2018-May-18 09:00N 01°13' E 103°41'2 3.4
2018-May-18 08:30N 01°13' E 103°39'0 0.0
2018-May-18 08:00N 01°13' E 103°39'0 0.0
2018-May-18 07:31N 01°13' E 103°39'0 0.3
2018-May-18 07:00N 01°13' E 103°39'1 1.9
2018-May-18 06:31N 01°12' E 103°39'2 4.8
2018-May-18 06:01N 01°12' E 103°37'3 5.1
2018-May-18 05:30N 01°13' E 103°34'3 5.7
2018-May-18 05:00N 01°11' E 103°32'0 0.7
2018-May-18 04:30N 01°11' E 103°32'1 1.1
2018-May-18 03:59N 01°11' E 103°31'2 3.5
2018-May-18 03:30N 01°10' E 103°30'3 5.2
2018-May-18 03:00N 01°10' E 103°27'3 5.3
2018-May-18 02:27N 01°11' E 103°24'3 6.3
2018-May-18 01:57N 01°13' E 103°22'2 5.4
2018-May-18 01:30N 01°15' E 103°20'4 5.8
2018-May-18 00:48N 01°18' E 103°17'2 6.8
2018-May-18 00:30N 01°19' E 103°16'4 7.0
2018-May-17 23:53N 01°22' E 103°12'  
Track history (hours):
 
Tides and Currents Weather Stations Pressure Air Temp Water Temp Dewpoint Dewpoint Depression Visibility Wind Speed Wind Dir Waves Ship Positions

Stavanger Bliss

Last reported at 2018-May-25 03:00 UTC. Time now 2018-May-25 03:22 UTC.
Position N 01°17' E 103°44'.

Length 228 m; draft 9.5 m.

Type: Other ship. MMSI: 259791000.

Date/timePositionNaut miles runAvg speedWind from/ knotsBaromVisibWave heightAir tempDewpointWater temp
2018-May-25 03:00N 01°17' E 103°44'0 0.0
2018-May-25 02:30N 01°17' E 103°44'0 0.0
2018-May-25 02:00N 01°17' E 103°44'0 0.0
2018-May-25 01:30N 01°17' E 103°44'0 0.0
2018-May-25 01:00N 01°17' E 103°44'0 0.0
2018-May-25 00:31N 01°17' E 103°44'0 0.0
2018-May-25 00:00N 01°17' E 103°44'0 0.0
2018-May-24 23:31N 01°17' E 103°44'0 0.0
2018-May-24 23:00N 01°17' E 103°44'0 0.0
2018-May-24 22:29N 01°17' E 103°44'0 0.0
2018-May-24 22:00N 01°17' E 103°44'0 0.0
2018-May-24 21:30N 01°17' E 103°44'0 0.0
2018-May-24 21:00N 01°17' E 103°44'0 0.0
2018-May-24 20:30N 01°17' E 103°44'0 0.0
2018-May-24 20:00N 01°17' E 103°44'0 0.0
2018-May-24 19:30N 01°17' E 103°44'0 0.0
2018-May-24 19:01N 01°17' E 103°44'0 0.0
2018-May-24 18:31N 01°17' E 103°44'0 0.8
2018-May-24 18:01N 01°17' E 103°44'2 3.5
2018-May-24 17:30N 01°16' E 103°46'2 4.5
2018-May-24 17:00N 01°15' E 103°44'4 8.9
2018-May-24 16:30N 01°12' E 103°40'2 4.2
2018-May-24 16:01N 01°11' E 103°42'0 0.0
2018-May-24 15:23N 01°11' E 103°42'0 0.0
2018-May-24 15:00N 01°11' E 103°42'0 0.0
2018-May-24 14:30N 01°11' E 103°42'0 0.1
2018-May-24 14:00N 01°11' E 103°41'0 0.1
2018-May-24 13:30N 01°11' E 103°41'0 0.0
2018-May-24 08:57N 01°11' E 103°42'0 0.1
2018-May-24 08:30N 01°11' E 103°42'0 0.0
2018-May-24 07:59N 01°11' E 103°42'0 0.1
2018-May-24 07:29N 01°11' E 103°42'0 0.0
2018-May-24 07:00N 01°11' E 103°42'0 0.0
2018-May-24 06:21N 01°11' E 103°42'0 0.2
2018-May-24 06:00N 01°11' E 103°42'0 0.0
2018-May-24 05:30N 01°11' E 103°42'0 0.0
2018-May-24 04:53N 01°11' E 103°42'0 0.0
2018-May-24 04:17N 01°11' E 103°42'0 0.1
2018-May-24 03:48N 01°11' E 103°42'0 0.1
2018-May-24 03:26N 01°11' E 103°42'0 0.2
2018-May-24 02:53N 01°11' E 103°42'0 0.2
2018-May-24 02:30N 01°11' E 103°42'1 1.8
2018-May-24 02:01N 01°12' E 103°41'3 6.3
2018-May-24 01:30N 01°15' E 103°43'3 5.6
2018-May-24 00:58N 01°16' E 103°46'2 3.6
2018-May-24 00:30N 01°14' E 103°45'0 0.0
2018-May-23 23:21N 01°14' E 103°45'0 0.0
2018-May-23 22:53N 01°14' E 103°45'0 0.0
2018-May-23 22:27N 01°14' E 103°45'0 0.0
2018-May-23 21:45N 01°14' E 103°45'0 0.0
2018-May-23 21:27N 01°14' E 103°45'0 0.0
2018-May-23 20:41N 01°14' E 103°45'0 0.0
2018-May-23 20:03N 01°14' E 103°45'0 0.0
2018-May-23 19:51N 01°14' E 103°45'0 0.0
2018-May-23 19:17N 01°14' E 103°45'0 0.0
2018-May-23 18:59N 01°14' E 103°45'0 0.0
2018-May-23 18:29N 01°14' E 103°45'0 0.0
2018-May-23 17:59N 01°14' E 103°45'0 0.0
2018-May-23 17:15N 01°14' E 103°45'0 0.0
2018-May-23 16:51N 01°14' E 103°45'0 0.0
2018-May-23 16:29N 01°14' E 103°45'0 0.0
2018-May-23 15:59N 01°14' E 103°45'0 0.0
2018-May-23 15:27N 01°14' E 103°45'0 0.0
2018-May-23 14:51N 01°14' E 103°45'0 0.0
2018-May-23 14:27N 01°14' E 103°45'0 0.0
2018-May-23 13:57N 01°14' E 103°45'0 0.0
2018-May-23 13:26N 01°14' E 103°45'0 0.0
2018-May-23 12:51N 01°14' E 103°45'0 0.0
2018-May-23 12:27N 01°14' E 103°45'0 0.0
2018-May-23 11:39N 01°14' E 103°45'0 0.0
2018-May-23 11:27N 01°14' E 103°45'0 0.0
2018-May-23 10:53N 01°14' E 103°45'0 0.0
2018-May-23 10:29N 01°14' E 103°45'0 0.0
2018-May-23 09:53N 01°14' E 103°45'0 0.0
2018-May-23 09:23N 01°14' E 103°45'0 0.0
2018-May-23 08:53N 01°14' E 103°45'0 0.0
2018-May-23 08:29N 01°14' E 103°45'0 0.0
2018-May-23 07:57N 01°14' E 103°45'0 0.0
2018-May-23 07:09N 01°14' E 103°45'0 0.0
2018-May-23 06:53N 01°14' E 103°45'0 0.0
2018-May-23 06:29N 01°14' E 103°45'0 0.0
2018-May-23 05:57N 01°14' E 103°45'0 0.0
2018-May-23 05:27N 01°14' E 103°45'0 0.0
2018-May-23 04:57N 01°14' E 103°45'0 0.0
2018-May-23 04:29N 01°14' E 103°45'0 0.0
2018-May-23 03:57N 01°14' E 103°45'0 0.0
2018-May-23 03:27N 01°14' E 103°45'0 0.0
2018-May-23 02:59N 01°14' E 103°45'0 0.0
2018-May-23 02:29N 01°14' E 103°45'0 0.0
2018-May-23 01:59N 01°14' E 103°45'0 0.0
2018-May-23 01:29N 01°14' E 103°45'0 0.0
2018-May-23 00:59N 01°14' E 103°45'0 0.0
2018-May-23 00:28N 01°14' E 103°45'0 0.0
2018-May-22 23:53N 01°14' E 103°45'0 0.0
2018-May-22 23:21N 01°14' E 103°45'0 0.0
2018-May-22 23:00N 01°14' E 103°45'0 0.0
2018-May-22 22:29N 01°14' E 103°45'0 0.0
2018-May-22 21:57N 01°14' E 103°45'0 0.0
2018-May-22 21:30N 01°14' E 103°45'0 0.0
2018-May-22 20:57N 01°14' E 103°45'0 0.0
2018-May-22 20:30N 01°14' E 103°45'0 0.0
2018-May-22 19:51N 01°14' E 103°45'0 0.0
2018-May-22 19:30N 01°14' E 103°45'0 0.0
2018-May-22 19:00N 01°14' E 103°45'0 0.0
2018-May-22 18:27N 01°14' E 103°45'0 0.0
2018-May-22 17:57N 01°14' E 103°45'0 0.0
2018-May-22 17:27N 01°14' E 103°45'0 0.0
2018-May-22 16:56N 01°14' E 103°45'0 0.0
2018-May-22 16:30N 01°14' E 103°45'0 0.0
2018-May-22 16:00N 01°14' E 103°45'0 0.8
2018-May-22 15:28N 01°14' E 103°44'2 4.5
2018-May-22 15:00N 01°14' E 103°42'4 7.2
2018-May-22 14:30N 01°12' E 103°39'2 5.0
2018-May-22 14:00N 01°11' E 103°42'0 0.1
2018-May-22 13:30N 01°11' E 103°42'0 0.1
2018-May-22 13:00N 01°11' E 103°42'0 0.3
2018-May-22 12:30N 01°11' E 103°42'0 0.1
2018-May-22 12:00N 01°11' E 103°42'0 0.0
2018-May-22 11:24N 01°11' E 103°42'0 0.0
2018-May-22 10:51N 01°11' E 103°42'0 0.0
2018-May-22 10:17N 01°11' E 103°42'0 0.2
2018-May-22 10:00N 01°11' E 103°42'0 0.1
2018-May-22 09:28N 01°11' E 103°42'0 0.1
2018-May-22 09:00N 01°11' E 103°42'0 0.2
2018-May-22 08:30N 01°11' E 103°42'0 0.3
2018-May-22 07:57N 01°11' E 103°42'1 1.3
2018-May-22 07:30N 01°12' E 103°42'6 4.1
2018-May-22 06:02N 01°18' E 103°42'0 0.5
2018-May-22 06:00N 01°18' E 103°42'0 0.0
2018-May-22 04:58N 01°18' E 103°42'0 0.0
2018-May-22 03:20N 01°18' E 103°42'0 0.0
2018-May-22 02:56N 01°18' E 103°42'0 0.0
2018-May-22 01:04N 01°18' E 103°42'0 0.0
2018-May-22 00:38N 01°18' E 103°42'0 0.0
2018-May-22 00:20N 01°18' E 103°42'0 0.0
2018-May-21 23:58N 01°18' E 103°42'0 0.0
2018-May-21 23:26N 01°18' E 103°42'0 0.0
2018-May-21 22:50N 01°18' E 103°42'0 0.0
2018-May-21 22:26N 01°18' E 103°42'0 0.0
2018-May-21 21:14N 01°18' E 103°42'0 0.0
2018-May-21 20:56N 01°18' E 103°42'0 0.0
2018-May-21 19:08N 01°18' E 103°42'0 0.0
2018-May-21 18:56N 01°18' E 103°42'0 0.0
2018-May-21 17:38N 01°18' E 103°42'0 0.0
2018-May-21 17:14N 01°18' E 103°42'0 0.0
2018-May-21 16:52N 01°18' E 103°42'0 0.0
2018-May-21 16:08N 01°18' E 103°42'0 0.0
2018-May-21 15:56N 01°18' E 103°42'0 0.0
2018-May-21 15:26N 01°18' E 103°42'0 0.0
2018-May-21 14:38N 01°18' E 103°42'0 0.0
2018-May-21 14:22N 01°18' E 103°42'0 0.0
2018-May-21 13:58N 01°18' E 103°42'0 0.0
2018-May-21 13:26N 01°18' E 103°42'0 0.0
2018-May-21 12:58N 01°18' E 103°42'0 0.0
2018-May-21 11:38N 01°18' E 103°42'0 0.0
2018-May-21 11:26N 01°18' E 103°42'0 0.0
2018-May-21 10:38N 01°18' E 103°42'0 0.0
2018-May-21 10:08N 01°18' E 103°42'0 0.0
2018-May-21 09:58N 01°18' E 103°42'0 0.0
2018-May-21 09:22N 01°18' E 103°42'0 0.0
2018-May-21 08:56N 01°18' E 103°42'0 0.0
2018-May-21 08:26N 01°18' E 103°42'0 0.0
2018-May-21 07:58N 01°18' E 103°42'0 0.0
2018-May-21 07:26N 01°18' E 103°42'0 0.0
2018-May-21 06:56N 01°18' E 103°42'0 0.0
2018-May-21 06:22N 01°18' E 103°42'0 0.0
2018-May-21 05:50N 01°18' E 103°42'0 0.0
2018-May-21 05:28N 01°18' E 103°42'0 0.0
2018-May-21 04:50N 01°18' E 103°42'0 0.0
2018-May-21 04:22N 01°18' E 103°42'0 0.0
2018-May-21 03:56N 01°18' E 103°42'0 0.0
2018-May-21 03:28N 01°18' E 103°42'0 0.0
2018-May-21 02:56N 01°18' E 103°42'0 0.0
2018-May-21 02:29N 01°18' E 103°42'0 0.0
2018-May-21 01:44N 01°18' E 103°42'0 0.0
2018-May-21 01:20N 01°18' E 103°42'0 0.0
2018-May-21 00:56N 01°18' E 103°42'0 0.0
2018-May-21 00:27N 01°18' E 103°42'0 0.0
2018-May-20 23:59N 01°18' E 103°42'0 0.0
2018-May-20 23:30N 01°18' E 103°42'0 0.0
2018-May-20 22:51N 01°18' E 103°42'0 0.0
2018-May-20 22:27N 01°18' E 103°42'0 0.0
2018-May-20 21:59N 01°18' E 103°42'0 0.0
2018-May-20 21:29N 01°18' E 103°42'0 0.0
2018-May-20 21:00N 01°18' E 103°42'0 0.0
2018-May-20 20:30N 01°18' E 103°42'0 0.0
2018-May-20 19:59N 01°18' E 103°42'0 0.0
2018-May-20 19:20N 01°18' E 103°42'0 0.0
2018-May-20 19:00N 01°18' E 103°42'0 0.0
2018-May-20 18:24N 01°18' E 103°42'0 0.0
2018-May-20 17:59N 01°18' E 103°42'0 0.0
2018-May-20 17:27N 01°18' E 103°42'0 0.0
2018-May-20 16:57N 01°18' E 103°42'0 0.0
2018-May-20 16:29N 01°18' E 103°42'0 0.0
2018-May-20 15:57N 01°18' E 103°42'0 0.0
2018-May-20 15:30N 01°18' E 103°42'0 0.4
2018-May-20 15:00N 01°18' E 103°41'2 4.7
2018-May-20 14:30N 01°17' E 103°39'4 8.8
2018-May-20 14:00N 01°12' E 103°40'4 8.8
2018-May-20 13:31N 01°09' E 103°43'0 0.7
2018-May-20 13:00N 01°10' E 103°43'0 0.1
2018-May-20 12:30N 01°10' E 103°43'0 0.1
2018-May-20 12:00N 01°10' E 103°43'0 0.0
2018-May-20 11:28N 01°10' E 103°43'0 0.1
2018-May-20 10:49N 01°10' E 103°43'0 0.1
2018-May-20 10:30N 01°10' E 103°43'0 0.2
2018-May-20 09:58N 01°10' E 103°44'0 0.0
2018-May-20 09:30N 01°10' E 103°44'0 0.1
2018-May-20 08:55N 01°10' E 103°44'0 0.0
2018-May-20 08:19N 01°10' E 103°44'0 0.0
2018-May-20 07:58N 01°10' E 103°44'0 0.1
2018-May-20 07:25N 01°10' E 103°44'0 0.1
2018-May-20 07:00N 01°10' E 103°44'0 0.1
2018-May-20 06:30N 01°09' E 103°44'0 0.8
2018-May-20 06:00N 01°09' E 103°43'2 3.7
2018-May-20 05:31N 01°10' E 103°42'3 5.5
2018-May-20 04:59N 01°12' E 103°40'3 6.6
2018-May-20 04:30N 01°14' E 103°42'2 3.9
2018-May-20 04:00N 01°15' E 103°44'0 0.4
2018-May-20 03:13N 01°14' E 103°44'0 0.0
2018-May-20 02:50N 01°14' E 103°44'0 0.0
2018-May-20 02:26N 01°14' E 103°44'0 0.0
2018-May-20 01:48N 01°14' E 103°44'0 0.0
2018-May-20 01:26N 01°14' E 103°44'0 0.0
2018-May-20 00:54N 01°14' E 103°44'0 0.0
2018-May-20 00:24N 01°14' E 103°44'0 0.0
2018-May-19 23:55N 01°14' E 103°44'0 0.0
2018-May-19 23:30N 01°14' E 103°44'0 0.0
2018-May-19 23:00N 01°14' E 103°44'0 0.0
2018-May-19 22:27N 01°14' E 103°44'0 0.0
2018-May-19 22:00N 01°14' E 103°44'0 0.0
2018-May-19 21:27N 01°14' E 103°44'0 0.0
2018-May-19 21:00N 01°14' E 103°44'0 0.0
2018-May-19 20:25N 01°14' E 103°44'0 0.0
2018-May-19 20:00N 01°14' E 103°44'0 0.0
2018-May-19 19:27N 01°14' E 103°44'0 0.0
2018-May-19 18:57N 01°14' E 103°44'0 0.0
2018-May-19 18:30N 01°14' E 103°44'0 0.0
2018-May-19 18:00N 01°14' E 103°44'0 0.0
2018-May-19 17:25N 01°14' E 103°44'0 0.0
2018-May-19 16:54N 01°14' E 103°44'0 0.0
2018-May-19 16:30N 01°14' E 103°44'0 0.0
2018-May-19 15:44N 01°14' E 103°44'0 0.0
2018-May-19 15:26N 01°14' E 103°44'0 0.0
2018-May-19 14:39N 01°14' E 103°44'0 0.0
2018-May-19 14:30N 01°14' E 103°44'0 0.0
2018-May-19 14:00N 01°14' E 103°44'0 0.0
2018-May-19 13:26N 01°14' E 103°44'0 0.0
2018-May-19 13:00N 01°14' E 103°44'0 0.0
2018-May-19 12:30N 01°14' E 103°44'0 0.0
2018-May-19 11:55N 01°14' E 103°44'0 0.0
2018-May-19 11:26N 01°14' E 103°44'0 0.0
2018-May-19 10:56N 01°14' E 103°44'0 0.0
2018-May-19 10:25N 01°14' E 103°44'0 0.0
2018-May-19 09:51N 01°14' E 103°44'0 0.0
2018-May-19 09:26N 01°14' E 103°44'0 0.0
2018-May-19 08:57N 01°14' E 103°44'0 0.0
2018-May-19 08:25N 01°14' E 103°44'0 0.0
2018-May-19 08:00N 01°14' E 103°44'0 0.0
2018-May-19 07:27N 01°14' E 103°44'0 0.0
2018-May-19 07:00N 01°14' E 103°44'0 0.0
2018-May-19 06:09N 01°14' E 103°44'0 0.0
2018-May-19 06:00N 01°14' E 103°44'0 0.0
2018-May-19 05:30N 01°14' E 103°44'0 0.0
2018-May-19 04:57N 01°14' E 103°44'0 0.0
2018-May-19 04:25N 01°14' E 103°44'0 0.0
2018-May-19 04:00N 01°14' E 103°44'0 0.0
2018-May-19 03:30N 01°14' E 103°44'0 0.0
2018-May-19 02:57N 01°14' E 103°44'0 0.0
2018-May-19 02:21N 01°14' E 103°44'0 0.0
2018-May-19 02:00N 01°14' E 103°44'0 0.0
2018-May-19 01:27N 01°14' E 103°44'0 0.0
2018-May-19 00:49N 01°14' E 103°44'0 0.0
2018-May-19 00:24N 01°14' E 103°44'0 0.0
2018-May-18 23:57N 01°14' E 103°44'0 0.0
2018-May-18 23:30N 01°14' E 103°44'0 0.0
2018-May-18 22:50N 01°14' E 103°44'0 0.0
2018-May-18 22:26N 01°14' E 103°44'0 0.0
2018-May-18 21:56N 01°14' E 103°44'0 0.0
2018-May-18 21:30N 01°14' E 103°44'0 0.0
2018-May-18 20:57N 01°14' E 103°44'0 0.0
2018-May-18 20:26N 01°14' E 103°44'0 0.0
2018-May-18 19:57N 01°14' E 103°44'0 0.0
2018-May-18 19:27N 01°14' E 103°44'0 0.0
2018-May-18 18:57N 01°14' E 103°44'0 0.0
2018-May-18 18:27N 01°14' E 103°44'0 0.0
2018-May-18 17:55N 01°14' E 103°44'0 0.0
2018-May-18 17:25N 01°14' E 103°44'0 0.0
2018-May-18 16:57N 01°14' E 103°44'0 0.0
2018-May-18 16:30N 01°14' E 103°44'0 0.0
2018-May-18 15:51N 01°14' E 103°44'0 0.0
2018-May-18 15:25N 01°14' E 103°44'0 0.0
2018-May-18 15:00N 01°14' E 103°44'0 0.0
2018-May-18 14:25N 01°14' E 103°44'0 0.0
2018-May-18 13:51N 01°14' E 103°44'0 0.0
2018-May-18 13:19N 01°14' E 103°44'0 0.0
2018-May-18 12:49N 01°14' E 103°44'0 0.0
2018-May-18 12:30N 01°14' E 103°44'0 0.0
2018-May-18 11:58N 01°14' E 103°44'0 0.0
2018-May-18 11:30N 01°14' E 103°44'0 0.0
2018-May-18 11:01N 01°14' E 103°44'0 0.0
2018-May-18 10:30N 01°14' E 103°44'0 0.8
2018-May-18 10:01N 01°15' E 103°44'1 2.9
2018-May-18 09:31N 01°14' E 103°43'2 4.2
2018-May-18 09:00N 01°13' E 103°41'2 3.4
2018-May-18 08:30N 01°13' E 103°39'0 0.0
2018-May-18 08:00N 01°13' E 103°39'0 0.0
2018-May-18 07:31N 01°13' E 103°39'0 0.3
2018-May-18 07:00N 01°13' E 103°39'1 1.9
2018-May-18 06:31N 01°12' E 103°39'2 4.8
2018-May-18 06:01N 01°12' E 103°37'3 5.1
2018-May-18 05:30N 01°13' E 103°34'3 5.7
2018-May-18 05:00N 01°11' E 103°32'0 0.7
2018-May-18 04:30N 01°11' E 103°32'1 1.1
2018-May-18 03:59N 01°11' E 103°31'2 3.5
2018-May-18 03:30N 01°10' E 103°30'3 5.2
2018-May-18 03:00N 01°10' E 103°27'3 5.3
2018-May-18 02:27N 01°11' E 103°24'3 6.3
2018-May-18 01:57N 01°13' E 103°22'2 5.4
2018-May-18 01:30N 01°15' E 103°20'4 5.8
2018-May-18 00:48N 01°18' E 103°17'2 6.8
2018-May-18 00:30N 01°19' E 103°16'4 7.0
2018-May-17 23:53N 01°22' E 103°12'  

Dump ship's entire track history